Thief River Falls, Minnesota
Current Conditions -  °F | °C
As of 7:35 AM on Thursday 23 Oct 2014 (Local Time) from KTVF Reporting Station
Few Clouds Few Clouds  
Wind Chill: 40°   Ceiling: Unl
Heat Index: 45°   Visibility: 10mi
Dew Point: 43°   Wind: 8mph
Humidity: 93%   Direction: 180°S
Pressure: 29.87"   Gusts: NA
Location:  48.12°N, 96.18°W
Report Text: KTVF 231235Z AUTO 18007KT 10SM FEW075 07/06 A2987 RMK AO1
Loading
Personal Weather Stations






























Interactive Weather Map
Tropical Storm Tracking
New forecast layout! Learn more

10-Day Weather Forecast

Advertisements
Track Severe Weather on mobile